Time;durP1;ratioP1;P1;durP2;ratioP2;P2;SDS_P1;SDS_P2;PMS_P1;PMS_P2;Temp;Humidity;BMP_temperature;BMP_pressure;BME280_temperature;BME280_humidity;BME280_pressure;Samples;Min_cycle;Max_cycle;Signal;HPM_P1;HPM_P2
2023/10/15 00:00:24;;;;;;;;;1.00;1.00;;;;;-143.90;100.00;74868.31;4960567;28;107674;-73
2023/10/15 00:02:52;;;;;;;;;1.00;1.00;;;;;-143.90;100.00;74870.38;4935154;28;103102;-73
2023/10/15 00:05:20;;;;;;;;;1.75;1.75;;;;;-143.90;100.00;74878.66;4960760;28;101702;-74
2023/10/15 00:07:49;;;;;;;;;1.00;1.00;;;;;-143.90;100.00;74882.78;4977399;28;101644;-74
2023/10/15 00:10:18;;;;;;;;;1.00;1.00;;;;;-143.90;100.00;74891.06;4965910;28;103549;-74
2023/10/15 00:12:47;;;;;;;;;0.00;0.00;;;;;-143.90;100.00;74893.13;4962481;28;101736;-72
2023/10/15 00:15:16;;;;;;;;;2.00;2.00;;;;;-143.90;100.00;74893.13;4962119;28;101542;-73
2023/10/15 00:17:43;;;;;;;;;1.00;1.00;;;;;-143.90;100.00;74891.06;4969583;28;101588;-73
2023/10/15 00:20:13;;;;;;;;;1.00;1.00;;;;;-143.90;100.00;74895.19;4957403;28;103369;-73
2023/10/15 00:22:42;;;;;;;;;1.25;1.00;;;;;-143.90;100.00;74889.00;4969219;28;101736;-73
2023/10/15 00:25:11;;;;;;;;;1.00;1.00;;;;;-143.90;100.00;74878.66;4969543;28;102442;-74
2023/10/15 00:27:40;;;;;;;;;0.25;0.25;;;;;-143.90;100.00;74878.66;4948429;28;101976;-74
2023/10/15 00:30:12;;;;;;;;;1.00;1.00;;;;;-143.90;100.00;74876.59;4974046;28;105335;-73
2023/10/15 00:32:43;;;;;;;;;2.00;1.75;;;;;-143.90;100.00;74878.66;4967373;28;101533;-73
2023/10/15 00:35:11;;;;;;;;;2.50;1.00;;;;;-143.90;100.00;74886.94;4952395;28;102078;-73
2023/10/15 00:37:40;;;;;;;;;1.75;1.75;;;;;-143.90;100.00;74901.41;4966957;28;101572;-73
2023/10/15 00:40:16;;;;;;;;;2.00;2.00;;;;;-143.90;100.00;74907.59;4953548;28;102383;-73
2023/10/15 00:42:45;;;;;;;;;1.00;1.00;;;;;-143.90;100.00;74911.72;4970891;28;101558;-73
2023/10/15 00:45:14;;;;;;;;;2.00;2.00;;;;;-143.90;100.00;74915.88;4967168;28;101643;-73
2023/10/15 00:47:44;;;;;;;;;1.75;1.00;;;;;-143.90;100.00;74911.72;4968526;28;102897;-73
2023/10/15 00:50:11;;;;;;;;;2.75;2.50;;;;;-143.90;100.00;74932.41;4968513;28;103579;-74
2023/10/15 00:52:42;;;;;;;;;4.75;3.00;;;;;-143.90;100.00;74957.22;4973916;28;101817;-74
2023/10/15 00:55:17;;;;;;;;;4.50;4.00;;;;;-143.90;100.00;74957.22;4973002;28;101757;-74
2023/10/15 00:57:46;;;;;;;;;3.00;2.50;;;;;-143.90;100.00;74951.00;4974029;28;101852;-74
2023/10/15 01:03:06;;;;;;;;;1.75;1.00;;;;;-143.90;100.00;74938.59;4953982;28;101533;-73
2023/10/15 01:05:44;;;;;;;;;1.00;1.00;;;;;-143.90;100.00;74940.69;4959449;28;101898;-74
2023/10/15 01:08:15;;;;;;;;;2.00;1.50;;;;;-143.90;100.00;74928.28;4969608;28;101973;-73
2023/10/15 01:10:43;;;;;;;;;2.25;2.25;;;;;-143.90;100.00;74936.53;4974026;28;103407;-73
2023/10/15 01:13:15;;;;;;;;;2.00;1.50;;;;;-143.90;100.00;74940.69;4951854;28;101565;-74
2023/10/15 01:15:43;;;;;;;;;3.50;3.50;;;;;-143.90;100.00;74955.16;4973097;28;101896;-74
2023/10/15 01:18:10;;;;;;;;;4.25;3.00;;;;;-143.90;100.00;74957.22;4969248;28;101517;-74
2023/10/15 01:20:42;;;;;;;;;1.00;1.00;;;;;-143.90;100.00;74969.63;4970137;28;103493;-74
2023/10/15 01:23:28;;;;;;;;;1.25;1.00;;;;;-143.90;100.00;74973.75;4968889;28;101619;-74
2023/10/15 01:25:57;;;;;;;;;2.00;2.00;;;;;-143.90;100.00;74971.69;4969977;28;101543;-73
2023/10/15 01:28:39;;;;;;;;;4.25;4.00;;;;;-143.90;100.00;74986.16;4973073;28;103317;-74
2023/10/15 01:31:06;;;;;;;;;2.50;2.50;;;;;-143.90;100.00;74988.22;4977709;28;108017;-73
2023/10/15 01:33:46;;;;;;;;;3.25;3.25;;;;;-143.90;100.00;74990.28;4973426;28;101625;-74
2023/10/15 01:36:27;;;;;;;;;4.00;3.00;;;;;-143.90;99.91;74998.56;4963509;28;102158;-74
2023/10/15 01:38:58;;;;;;;;;5.50;4.75;;;;;-143.90;99.84;75002.69;4974531;28;101837;-73
2023/10/15 01:41:25;;;;;;;;;4.00;4.00;;;;;-143.90;100.00;75002.69;4971513;28;103483;-73
2023/10/15 01:43:53;;;;;;;;;8.00;5.00;;;;;-143.90;100.00;74990.28;4961203;28;101898;-72
2023/10/15 01:46:39;;;;;;;;;2.75;2.75;;;;;-143.90;99.84;74996.50;4975372;28;101568;-73
2023/10/15 01:49:08;;;;;;;;;2.25;2.25;;;;;-143.90;100.00;74986.16;4975128;28;101935;-72
2023/10/15 01:51:39;;;;;;;;;1.25;1.00;;;;;-143.90;100.00;74994.44;4969532;28;103791;-72
2023/10/15 01:54:09;;;;;;;;;3.25;3.00;;;;;-143.90;99.31;75017.16;4979820;28;101703;-73
2023/10/15 01:56:37;;;;;;;;;5.00;3.00;;;;;-143.90;100.00;75008.91;4970455;28;101547;-72
2023/10/15 01:59:10;;;;;;;;;4.00;3.00;;;;;-143.90;100.00;74994.44;4984067;28;101727;-73
2023/10/15 02:01:40;;;;;;;;;2.50;2.50;;;;;-143.90;100.00;75017.16;4972659;28;107896;-73
2023/10/15 02:06:51;;;;;;;;;5.75;5.75;;;;;-143.90;100.00;75035.78;4978356;28;101900;-74
2023/10/15 02:09:21;;;;;;;;;4.25;2.75;;;;;-143.90;100.00;75021.31;4981551;28;102005;-73
2023/10/15 02:11:48;;;;;;;;;2.25;2.00;;;;;-143.90;100.00;75015.09;4974268;28;103472;-73
2023/10/15 02:14:21;;;;;;;;;6.00;5.50;;;;;-143.90;99.10;75029.56;4974964;28;101670;-73
2023/10/15 02:16:51;;;;;;;;;6.00;4.50;;;;;-143.90;98.91;75041.97;4972759;28;101750;-73
2023/10/15 02:19:40;;;;;;;;;5.75;3.00;;;;;-143.90;99.88;75019.22;4958607;28;102000;-74
2023/10/15 02:22:12;;;;;;;;;3.00;3.00;;;;;-143.90;98.97;75048.19;4971547;28;108057;-72
2023/10/15 02:24:47;;;;;;;;;5.50;4.25;;;;;-143.90;99.60;75068.84;4969349;28;101717;-72
2023/10/15 02:27:25;;;;;;;;;4.75;4.25;;;;;-143.90;99.61;75060.59;4979490;28;101933;-73
2023/10/15 02:29:51;;;;;;;;;5.75;4.75;;;;;-143.90;99.60;75064.72;4958226;28;101626;-73
2023/10/15 02:34:52;;;;;;;;;6.25;5.50;;;;;-143.90;98.20;75077.13;4974230;28;102527;-73
2023/10/15 02:37:28;;;;;;;;;7.50;6.00;;;;;-143.90;98.86;75068.84;4972534;28;101627;-73
2023/10/15 02:39:57;;;;;;;;;4.25;3.00;;;;;-143.90;98.78;75062.66;4973989;28;105770;-73
2023/10/15 02:42:30;;;;;;;;;2.00;2.00;;;;;-143.90;98.28;75058.50;4969841;28;103999;-72
2023/10/15 02:44:58;;;;;;;;;5.50;4.00;;;;;-143.90;97.36;75077.13;4974789;28;101906;-72
2023/10/15 02:47:31;;;;;;;;;5.00;5.00;;;;;-143.90;96.24;75085.38;4973357;28;101645;-74
2023/10/15 02:50:04;;;;;;;;;8.25;4.25;;;;;-143.90;97.39;75081.25;4969360;28;101857;-73
2023/10/15 02:52:43;;;;;;;;;7.50;6.00;;;;;-143.90;97.36;75081.25;4971970;28;107734;-73
2023/10/15 02:55:15;;;;;;;;;8.00;6.00;;;;;-143.90;96.76;75085.38;4965285;28;108488;-73
2023/10/15 02:57:44;;;;;;;;;6.00;5.00;;;;;-143.90;96.91;75089.53;4970192;28;101544;-74
2023/10/15 03:00:18;;;;;;;;;6.00;4.25;;;;;-143.90;97.06;75104.00;4974936;28;101621;-73
2023/10/15 03:02:46;;;;;;;;;5.00;4.75;;;;;-143.90;97.22;75118.47;4970985;28;103390;-73
2023/10/15 03:05:15;;;;;;;;;8.25;7.75;;;;;-143.90;96.46;75128.81;4952301;28;101642;-73
2023/10/15 03:07:43;;;;;;;;;7.25;4.00;;;;;-143.90;96.03;75135.00;4971015;28;101988;-72
2023/10/15 03:10:21;;;;;;;;;6.25;5.00;;;;;-143.90;96.48;75143.28;4973171;28;102789;-72
2023/10/15 03:12:48;;;;;;;;;10.25;7.00;;;;;-143.90;97.25;75161.88;4967292;28;103358;-73
2023/10/15 03:15:17;;;;;;;;;5.00;3.50;;;;;-143.90;96.86;75143.28;4974841;28;101649;-73
2023/10/15 03:17:44;;;;;;;;;3.25;3.00;;;;;-143.90;96.13;75143.28;4961063;28;102699;-72
2023/10/15 03:22:46;;;;;;;;;3.00;3.00;;;;;-143.90;94.89;75149.47;4973901;28;102893;-73
2023/10/15 03:25:13;;;;;;;;;2.50;2.00;;;;;-143.90;95.44;75155.69;4976170;28;101902;-73
2023/10/15 03:27:40;;;;;;;;;1.00;1.00;;;;;-143.90;94.75;75151.53;4977617;28;101714;-73
2023/10/15 03:30:10;;;;;;;;;3.00;3.00;;;;;-143.90;95.22;75176.34;4975405;28;101746;-72
2023/10/15 03:32:45;;;;;;;;;4.00;3.00;;;;;-143.90;94.98;75176.34;4973388;28;103264;-73
2023/10/15 03:35:27;;;;;;;;;2.00;1.00;;;;;-143.90;94.98;75180.50;4955821;28;101817;-74
2023/10/15 03:37:59;;;;;;;;;1.00;1.00;;;;;-143.90;94.49;75194.97;4974662;28;101600;-73
2023/10/15 03:40:44;;;;;;;;;2.00;1.50;;;;;-143.90;95.75;75203.22;4976516;28;101845;-72
2023/10/15 03:43:20;;;;;;;;;2.75;2.25;;;;;-143.90;95.48;75225.97;4973177;28;108081;-73
2023/10/15 03:45:50;;;;;;;;;7.75;6.00;;;;;-143.90;95.79;75244.59;4959911;28;101892;-72
2023/10/15 03:48:32;;;;;;;;;3.25;2.25;;;;;-143.90;96.92;75236.31;4975109;28;101547;-72
2023/10/15 03:50:58;;;;;;;;;4.50;3.50;;;;;-143.90;96.90;75250.78;4971300;28;102734;-73
2023/10/15 03:53:35;;;;;;;;;4.75;2.00;;;;;-143.90;96.73;75246.66;4969142;28;103248;-73
2023/10/15 03:56:03;;;;;;;;;7.75;4.00;;;;;-143.90;96.62;75275.59;4970005;28;101753;-74
2023/10/15 03:58:33;;;;;;;;;3.00;2.00;;;;;-143.90;97.13;75277.66;4950194;28;103212;-73
2023/10/15 04:01:27;;;;;;;;;4.00;2.00;;;;;-143.90;97.37;75288.00;4976999;28;102027;-72
2023/10/15 04:03:54;;;;;;;;;3.00;2.00;;;;;-143.90;97.35;75283.84;4973329;28;108225;-72
2023/10/15 04:06:22;;;;;;;;;3.75;3.00;;;;;-143.90;97.15;75298.34;4967613;28;101804;-73
2023/10/15 04:11:42;;;;;;;;;3.00;2.00;;;;;-143.90;97.92;75310.75;4978351;28;102628;-73
2023/10/15 04:14:17;;;;;;;;;2.75;2.75;;;;;-143.90;96.63;75319.00;4969017;28;107909;-72
2023/10/15 04:16:46;;;;;;;;;3.25;2.00;;;;;-143.90;96.78;75321.06;4970677;28;101478;-73
2023/10/15 04:19:17;;;;;;;;;2.75;2.00;;;;;-143.90;95.55;75312.81;4956190;28;101795;-74
2023/10/15 04:21:45;;;;;;;;;2.25;2.00;;;;;-143.90;95.62;75316.94;4970443;28;103022;-74
2023/10/15 04:24:20;;;;;;;;;1.75;1.50;;;;;-143.90;95.32;75321.06;4972089;28;103702;-73
2023/10/15 04:26:48;;;;;;;;;2.00;1.50;;;;;-143.90;94.98;75316.94;4969054;28;101644;-72
2023/10/15 04:29:18;;;;;;;;;2.00;1.00;;;;;-143.90;96.01;75325.22;4972595;28;101644;-74
2023/10/15 04:32:23;;;;;;;;;2.00;1.00;;;;;-143.90;95.57;75327.28;4957120;28;101525;-73
2023/10/15 04:34:39;;;;;;;;;2.00;2.00;;;;;-143.90;95.53;75333.47;4967254;28;108078;-72
2023/10/15 04:37:16;;;;;;;;;1.00;1.00;;;;;-143.90;95.45;75333.47;4979100;28;101551;-74
2023/10/15 04:39:51;;;;;;;;;2.00;0.00;;;;;-143.90;95.66;75343.81;4969942;28;101917;-72
2023/10/15 04:42:41;;;;;;;;;1.25;0.00;;;;;-143.90;95.70;75354.16;4973769;28;103238;-72
2023/10/15 04:45:20;;;;;;;;;2.00;1.00;;;;;-143.90;94.95;75354.16;4975502;28;103490;-74
2023/10/15 04:48:36;;;;;;;;;1.00;0.25;;;;;-143.90;95.50;75368.63;4973373;28;102193;-72
2023/10/15 04:50:36;;;;;;;;;1.50;1.50;;;;;-143.90;95.59;75374.84;4945855;28;101950;-73
2023/10/15 04:53:23;;;;;;;;;2.50;2.00;;;;;-143.90;95.97;75387.22;4971683;28;102478;-73
2023/10/15 04:55:52;;;;;;;;;3.50;2.00;;;;;-143.90;96.30;75393.44;4970899;28;107874;-73
2023/10/15 04:58:20;;;;;;;;;0.50;0.50;;;;;-143.90;96.72;75401.72;4972064;28;106355;-72
2023/10/15 05:00:48;;;;;;;;;1.00;1.00;;;;;-143.90;96.50;75405.84;4971286;28;101842;-73
2023/10/15 05:03:16;;;;;;;;;1.00;1.00;;;;;-143.90;96.85;75409.97;4970738;28;103342;-73
2023/10/15 05:05:44;;;;;;;;;1.00;1.00;;;;;-143.90;97.50;75403.78;4967967;28;103514;-73
2023/10/15 05:08:11;;;;;;;;;2.00;1.00;;;;;-143.90;96.63;75416.19;4971950;28;101518;-72
2023/10/15 05:10:44;;;;;;;;;0.75;0.75;;;;;-143.90;97.09;75422.38;4973275;28;101773;-72
2023/10/15 05:13:12;;;;;;;;;1.00;1.00;;;;;-143.90;96.78;75424.44;4960161;28;101923;-73
2023/10/15 05:15:42;;;;;;;;;1.00;1.00;;;;;-143.90;96.94;75424.44;4968126;28;103447;-73
2023/10/15 05:18:09;;;;;;;;;6.00;4.50;;;;;-143.90;96.09;75432.72;4968983;28;102061;-74
2023/10/15 05:20:36;;;;;;;;;2.00;2.00;;;;;-143.90;96.58;75428.59;4975231;28;101615;-73
2023/10/15 05:23:04;;;;;;;;;4.25;3.00;;;;;-143.90;96.27;75434.78;4968513;28;101628;-73
2023/10/15 05:25:31;;;;;;;;;6.25;6.00;;;;;-143.90;95.82;75432.72;4967921;28;102840;-73
2023/10/15 05:27:59;;;;;;;;;4.00;3.00;;;;;-143.90;95.29;75434.78;4968138;28;102078;-73
2023/10/15 05:30:26;;;;;;;;;3.25;2.75;;;;;-143.90;95.88;75432.72;4966106;28;103062;-73
2023/10/15 05:32:53;;;;;;;;;9.00;5.25;;;;;-143.90;96.31;75428.59;4952784;28;102013;-72
2023/10/15 05:35:19;;;;;;;;;3.50;3.00;;;;;-143.90;96.36;75432.72;4972025;28;103564;-73
2023/10/15 05:37:46;;;;;;;;;5.50;5.50;;;;;-143.90;95.66;75434.78;4971113;28;104908;-72
2023/10/15 05:40:15;;;;;;;;;8.25;6.50;;;;;-143.90;96.06;75436.84;4974474;28;102308;-74
2023/10/15 05:42:42;;;;;;;;;8.00;8.00;;;;;-143.90;96.32;75436.84;4976960;28;101718;-73
2023/10/15 05:45:09;;;;;;;;;6.25;4.75;;;;;-143.90;96.25;75436.84;4971928;28;103603;-73
2023/10/15 05:47:36;;;;;;;;;3.50;2.50;;;;;-143.90;95.81;75436.84;4972762;28;105591;-72
2023/10/15 05:50:04;;;;;;;;;7.50;5.50;;;;;-143.90;96.17;75461.66;4975344;28;101617;-73
2023/10/15 05:52:32;;;;;;;;;9.00;7.00;;;;;-143.90;96.86;75467.88;4968309;28;101700;-73
2023/10/15 05:55:00;;;;;;;;;7.50;6.50;;;;;-143.90;96.80;75457.53;4964599;28;103646;-73
2023/10/15 05:57:30;;;;;;;;;7.00;6.00;;;;;-143.90;96.52;75467.88;4972995;28;101774;-73
2023/10/15 05:59:57;;;;;;;;;7.75;7.00;;;;;-143.90;97.09;75476.13;4954638;28;101635;-72
2023/10/15 06:02:24;;;;;;;;;8.25;7.00;;;;;-143.90;96.48;75463.72;4973160;28;101651;-73
2023/10/15 06:04:50;;;;;;;;;10.00;6.50;;;;;-143.90;96.57;75463.72;4970595;28;103488;-73
2023/10/15 06:07:17;;;;;;;;;5.75;5.75;;;;;-143.90;95.82;75459.59;4951175;28;101679;-74
2023/10/15 06:09:50;;;;;;;;;9.00;6.00;;;;;-143.90;95.85;75465.81;4961666;28;102644;-73
2023/10/15 06:12:16;;;;;;;;;6.75;6.00;;;;;-143.90;95.05;75472.00;4972184;28;102519;-74
2023/10/15 06:14:43;;;;;;;;;4.50;3.25;;;;;-143.90;95.11;75453.41;4951468;28;103406;-73
2023/10/15 06:17:11;;;;;;;;;4.00;2.25;;;;;-143.90;93.78;75453.41;4976020;28;101612;-74
2023/10/15 06:19:38;;;;;;;;;3.00;3.00;;;;;-143.90;93.52;75449.25;4973551;28;101574;-73
2023/10/15 06:22:05;;;;;;;;;0.25;0.25;;;;;-143.90;92.94;75459.59;4977575;28;101821;-74
2023/10/15 06:24:32;;;;;;;;;4.00;3.25;;;;;-143.90;92.45;75457.53;4969067;28;108117;-74
2023/10/15 06:27:00;;;;;;;;;3.00;2.00;;;;;-143.90;92.48;75438.94;4972315;28;101778;-73
2023/10/15 06:29:26;;;;;;;;;2.25;2.00;;;;;-143.90;91.81;75428.59;4963769;28;101729;-72
2023/10/15 06:31:53;;;;;;;;;3.00;1.00;;;;;-143.90;90.70;75420.31;4973515;28;101779;-73
2023/10/15 06:34:20;;;;;;;;;1.00;0.00;;;;;-143.90;90.24;75416.19;4970995;28;104352;-73
2023/10/15 06:36:47;;;;;;;;;3.00;2.00;;;;;-143.90;89.57;75430.66;4971784;28;101923;-74
2023/10/15 06:39:14;;;;;;;;;2.75;2.00;;;;;-143.90;90.06;75426.50;4952920;28;101657;-74
2023/10/15 06:41:43;;;;;;;;;1.00;0.00;;;;;-143.90;89.50;75420.31;4975819;28;101576;-74
2023/10/15 06:44:10;;;;;;;;;2.00;1.75;;;;;-143.90;89.49;75416.19;4974492;28;109210;-74
2023/10/15 06:46:38;;;;;;;;;2.00;1.00;;;;;-143.90;89.56;75409.97;4966653;28;101971;-73
2023/10/15 06:49:07;;;;;;;;;1.75;1.25;;;;;-143.90;88.85;75416.19;4980752;28;101800;-74
2023/10/15 06:51:34;;;;;;;;;4.00;2.50;;;;;-143.90;88.90;75407.91;4968246;28;101540;-74
2023/10/15 06:54:01;;;;;;;;;1.00;1.00;;;;;-143.90;89.12;75399.63;4973065;28;103454;-74
2023/10/15 06:56:28;;;;;;;;;2.25;1.75;;;;;-143.90;89.12;75397.56;4970142;28;102919;-73
2023/10/15 06:58:54;;;;;;;;;2.00;1.00;;;;;-143.90;86.34;75395.50;4946851;28;102100;-72
2023/10/15 07:01:21;;;;;;;;;1.50;1.50;;;;;-143.90;85.79;75395.50;4969672;28;101773;-70
2023/10/15 07:03:47;;;;;;;;;2.75;1.75;;;;;-143.90;85.10;75403.78;4975200;28;103353;-72
2023/10/15 07:06:14;;;;;;;;;1.00;1.00;;;;;-143.90;85.38;75391.38;4975392;28;101720;-72
2023/10/15 07:08:41;;;;;;;;;2.00;2.00;;;;;-143.90;85.05;75374.84;4968053;28;101538;-74
2023/10/15 07:11:08;;;;;;;;;1.00;1.00;;;;;-143.90;85.20;75368.63;4976267;28;101498;-73
2023/10/15 07:13:35;;;;;;;;;3.00;1.25;;;;;-143.90;84.29;75360.34;4967511;28;103128;-73
2023/10/15 07:16:02;;;;;;;;;1.25;1.00;;;;;-143.90;84.27;75345.88;4968978;28;101643;-73
2023/10/15 07:18:32;;;;;;;;;1.00;0.00;;;;;-143.90;83.76;75329.34;4956399;28;102249;-73
2023/10/15 07:20:59;;;;;;;;;2.00;1.00;;;;;-143.90;77.61;75321.06;4956719;28;101846;-72
2023/10/15 07:23:26;;;;;;;;;2.00;1.00;;;;;-143.90;80.50;75319.00;4970842;28;102948;-72
2023/10/15 07:25:53;;;;;;;;;2.25;0.25;;;;;-143.90;79.65;75302.47;4970867;28;101996;-73
2023/10/15 07:28:21;;;;;;;;;3.00;1.00;;;;;-143.90;77.96;75296.25;4978889;28;106349;-73
2023/10/15 07:30:49;;;;;;;;;2.00;1.00;;;;;-143.90;77.19;75279.72;4970539;28;102002;-72
2023/10/15 07:33:16;;;;;;;;;2.25;1.00;;;;;-143.90;76.32;75294.19;4965363;28;107919;-71
2023/10/15 07:35:43;;;;;;;;;1.00;1.00;;;;;-143.90;72.88;75312.81;4950253;28;101927;-72
2023/10/15 07:38:12;;;;;;;;;0.00;0.00;;;;;-143.90;74.55;75292.13;4973762;28;101546;-73
2023/10/15 07:40:40;;;;;;;;;1.00;1.00;;;;;-143.90;74.84;75273.53;4968134;28;102074;-74
2023/10/15 07:43:08;;;;;;;;;1.00;1.00;;;;;-143.90;75.32;75242.50;4956845;28;103543;-74
2023/10/15 07:45:37;;;;;;;;;2.50;1.00;;;;;-143.90;70.78;75259.06;4962996;28;101884;-71
2023/10/15 07:48:05;;;;;;;;;1.75;1.75;;;;;-143.90;69.66;75254.91;4964921;28;101876;-73
2023/10/15 07:50:34;;;;;;;;;2.00;2.00;;;;;-143.90;69.87;75273.53;4972122;28;101976;-71
2023/10/15 07:53:02;;;;;;;;;1.25;0.25;;;;;-143.90;71.08;75265.25;4968722;28;103405;-70
2023/10/15 07:55:29;;;;;;;;;1.25;1.00;;;;;-143.90;70.01;75252.84;4966835;28;102034;-72
2023/10/15 07:57:57;;;;;;;;;0.50;0.25;;;;;-143.90;67.68;75244.59;4970289;28;102218;-73
2023/10/15 08:00:26;;;;;;;;;0.25;0.25;;;;;-143.90;66.81;75256.97;4966549;28;102091;-72
2023/10/15 08:02:57;;;;;;;;;0.50;0.50;;;;;-143.90;65.55;75244.59;4966050;28;105213;-71
2023/10/15 08:05:31;;;;;;;;;1.00;1.00;;;;;-143.90;65.88;75252.84;4937133;28;101618;-70
2023/10/15 08:08:01;;;;;;;;;2.00;2.00;;;;;-143.90;67.51;75259.06;4969781;28;101963;-74
2023/10/15 08:10:32;;;;;;;;;1.00;0.00;;;;;-143.90;65.27;75232.19;4964873;28;102727;-72
2023/10/15 08:13:00;;;;;;;;;0.00;0.00;;;;;-143.90;63.89;75225.97;4960092;28;104368;-73
2023/10/15 08:15:27;;;;;;;;;1.00;0.00;;;;;-143.90;64.61;75205.28;4963960;28;101871;-74
2023/10/15 08:17:57;;;;;;;;;1.00;0.00;;;;;-143.90;63.21;75221.84;4969736;28;103073;-73
2023/10/15 08:20:24;;;;;;;;;2.00;1.00;;;;;-143.90;64.28;75201.16;4971276;28;101821;-73
2023/10/15 08:22:50;;;;;;;;;3.00;0.50;;;;;-143.90;64.02;75221.84;4973880;28;103337;-72
2023/10/15 08:25:21;;;;;;;;;0.75;0.75;;;;;-143.90;65.55;75211.50;4970873;28;102422;-73
2023/10/15 08:27:48;;;;;;;;;1.50;0.50;;;;;-143.90;64.31;75209.44;4964190;28;101896;-73
2023/10/15 08:30:17;;;;;;;;;1.00;1.00;;;;;-143.90;63.99;75201.16;4971341;28;101921;-73
2023/10/15 08:32:45;;;;;;;;;0.00;0.00;;;;;-143.90;65.10;75207.38;4970010;28;107717;-73
2023/10/15 08:35:16;;;;;;;;;0.50;0.50;;;;;-143.90;63.87;75232.19;4965765;28;101675;-73
2023/10/15 08:37:44;;;;;;;;;0.00;0.00;;;;;-143.90;64.02;75211.50;4964350;28;101658;-73
2023/10/15 08:40:18;;;;;;;;;1.00;0.75;;;;;-143.90;66.00;75180.50;4972461;28;103690;-74
2023/10/15 08:42:59;;;;;;;;;1.00;1.00;;;;;-143.90;63.99;75192.91;4965977;28;108390;-73
2023/10/15 08:45:26;;;;;;;;;1.00;0.00;;;;;-143.90;64.07;75159.81;4967213;28;101606;-73
2023/10/15 08:47:53;;;;;;;;;1.00;1.00;;;;;-143.90;63.80;75201.16;4969851;28;101514;-74
2023/10/15 08:50:22;;;;;;;;;1.00;1.00;;;;;-143.90;64.98;75182.56;4955165;28;101624;-74
2023/10/15 08:52:52;;;;;;;;;2.50;2.00;;;;;-143.90;63.73;75186.69;4962652;28;103370;-74
2023/10/15 08:55:23;;;;;;;;;2.00;2.00;;;;;-143.90;61.05;75201.16;4968403;28;102263;-72
2023/10/15 08:57:54;;;;;;;;;2.00;2.00;;;;;-143.90;61.76;75225.97;4966347;28;101720;-73
2023/10/15 09:00:28;;;;;;;;;2.50;1.50;;;;;-143.90;61.17;75236.31;4966534;28;101983;-74
2023/10/15 09:03:00;;;;;;;;;2.75;1.00;;;;;-143.90;61.96;75211.50;4967913;28;103344;-73
2023/10/15 09:05:40;;;;;;;;;3.00;2.75;;;;;-143.90;60.63;75250.78;4962537;28;102004;-73
2023/10/15 09:08:07;;;;;;;;;1.00;1.00;;;;;-143.90;60.73;75223.91;4961546;28;102490;-72
2023/10/15 09:10:36;;;;;;;;;1.00;1.00;;;;;-143.90;62.87;75201.16;4948186;28;101835;-71
2023/10/15 09:13:05;;;;;;;;;3.00;1.75;;;;;-143.90;58.81;75199.09;4966936;28;103268;-72
2023/10/15 09:15:31;;;;;;;;;1.00;1.00;;;;;-143.90;59.27;75180.50;4965540;28;102777;-74
2023/10/15 09:17:59;;;;;;;;;4.00;1.00;;;;;-143.90;59.20;75143.28;4961932;28;101666;-73
2023/10/15 09:20:27;;;;;;;;;3.00;1.00;;;;;-143.90;58.32;75135.00;4964844;28;102044;-73
2023/10/15 09:22:58;;;;;;;;;1.25;1.00;;;;;-143.90;57.88;75122.59;4969317;28;107630;-74
2023/10/15 09:25:29;;;;;;;;;1.00;1.00;;;;;-143.90;55.65;75139.16;4963361;28;103301;-70
2023/10/15 09:27:57;;;;;;;;;1.00;1.00;;;;;-143.90;55.14;75163.94;4959149;28;103590;-74
2023/10/15 09:30:26;;;;;;;;;0.75;0.75;;;;;-143.90;56.12;75155.69;4972697;28;102069;-72
2023/10/15 09:32:54;;;;;;;;;1.00;1.00;;;;;-143.90;53.38;75159.81;4973042;28;103355;-72
2023/10/15 09:35:21;;;;;;;;;0.25;0.25;;;;;-143.90;52.63;75168.09;4959892;28;101921;-72
2023/10/15 09:37:48;;;;;;;;;1.75;1.25;;;;;-143.90;53.00;75192.91;4978535;28;101819;-74
2023/10/15 09:40:23;;;;;;;;;1.50;1.50;;;;;-143.90;52.02;75182.56;4972354;28;101967;-72
2023/10/15 09:42:53;;;;;;;;;0.75;0.75;;;;;-143.90;52.90;75180.50;4970957;28;108145;-73
2023/10/15 09:45:24;;;;;;;;;2.00;0.75;;;;;-143.90;51.60;75199.09;4955266;28;102034;-72
2023/10/15 09:47:54;;;;;;;;;2.25;1.00;;;;;-143.90;51.21;75180.50;4971377;28;101972;-71
2023/10/15 09:50:25;;;;;;;;;1.00;1.00;;;;;-143.90;52.46;75199.09;4968833;28;101854;-72
2023/10/15 09:52:56;;;;;;;;;1.00;1.00;;;;;-143.90;52.72;75213.56;4955025;28;103553;-71
2023/10/15 09:55:28;;;;;;;;;2.00;1.00;;;;;-143.90;53.14;75192.91;4974777;28;101792;-73
2023/10/15 09:57:57;;;;;;;;;2.00;1.00;;;;;-143.90;52.70;75188.75;4972087;28;102760;-73
2023/10/15 10:00:46;;;;;;;;;1.00;0.00;;;;;-143.90;51.60;75168.09;4965141;28;102061;-73
2023/10/15 10:03:49;;;;;;;;;0.25;0.00;;;;;-143.90;53.63;75147.41;4965912;28;103674;-73
2023/10/15 10:06:47;;;;;;;;;0.00;0.00;;;;;-143.90;51.95;75145.34;4899885;28;101591;-73
2023/10/15 10:09:22;;;;;;;;;0.00;0.00;;;;;-143.90;51.40;75172.22;4975906;28;101510;-73
2023/10/15 10:12:11;;;;;;;;;0.75;0.75;;;;;-143.90;52.67;75170.16;4966543;28;101707;-72
2023/10/15 10:15:16;;;;;;;;;1.00;0.00;;;;;-143.90;54.58;75161.88;4965884;28;108048;-73
2023/10/15 10:17:43;;;;;;;;;0.50;0.25;;;;;-143.90;52.78;75159.81;4967222;28;101666;-75
2023/10/15 10:20:13;;;;;;;;;1.25;0.00;;;;;-143.90;53.51;75141.22;4943814;28;101787;-74
2023/10/15 10:22:43;;;;;;;;;1.00;1.00;;;;;-143.90;53.61;75139.16;4953436;28;103262;-79
2023/10/15 10:25:31;;;;;;;;;1.50;0.00;;;;;-143.90;53.28;75126.75;4969154;28;103340;-81
2023/10/15 10:28:05;;;;;;;;;0.75;0.75;;;;;-143.90;52.13;75130.88;4950895;28;102319;-76
2023/10/15 10:30:57;;;;;;;;;1.00;1.00;;;;;-143.90;53.15;75176.34;4955765;28;103040;-79
2023/10/15 10:33:44;;;;;;;;;1.00;0.50;;;;;-143.90;54.07;75157.75;4965533;28;104707;-78
2023/10/15 10:36:15;;;;;;;;;0.00;0.00;;;;;-143.90;53.06;75149.47;4966468;28;103410;-76
2023/10/15 10:38:43;;;;;;;;;1.25;0.75;;;;;-143.90;54.03;75124.66;4951509;28;102025;-79
2023/10/15 10:41:14;;;;;;;;;1.00;0.00;;;;;-143.90;53.99;75114.34;4965659;28;101823;-77
2023/10/15 10:43:52;;;;;;;;;1.75;0.00;;;;;-143.90;54.85;75072.97;4964603;28;101592;-78
2023/10/15 10:46:41;;;;;;;;;1.00;1.00;;;;;-143.90;54.70;75044.03;4963252;28;105049;-78
2023/10/15 10:49:18;;;;;;;;;0.00;0.00;;;;;-143.90;51.65;75023.38;4964651;28;102155;-76
2023/10/15 10:52:16;;;;;;;;;1.00;0.25;;;;;-143.90;52.08;74990.28;4965012;28;103616;-78
2023/10/15 10:54:47;;;;;;;;;1.00;0.00;;;;;-143.90;51.81;74959.28;4961348;28;101893;-79
2023/10/15 10:57:18;;;;;;;;;0.75;0.75;;;;;-143.90;50.23;74930.34;4964729;28;103625;-76
2023/10/15 10:59:45;;;;;;;;;0.50;0.00;;;;;-143.90;47.18;74936.53;4964270;28;102248;-76
2023/10/15 11:02:13;;;;;;;;;1.00;1.00;;;;;-143.90;47.12;74924.13;4949814;28;102237;-78
2023/10/15 11:04:41;;;;;;;;;1.00;0.25;;;;;-143.90;47.28;74920.00;4965664;28;101935;-76
2023/10/15 11:07:14;;;;;;;;;2.00;2.00;;;;;-143.90;47.92;74920.00;4967825;28;102986;-75
2023/10/15 11:09:42;;;;;;;;;1.50;1.00;;;;;-143.90;49.08;74901.41;4972152;28;101750;-76
2023/10/15 11:12:09;;;;;;;;;1.00;1.00;;;;;-143.90;47.98;74903.47;4964849;28;103421;-76
2023/10/15 11:14:36;;;;;;;;;1.50;1.50;;;;;-143.90;48.28;74891.06;4952980;28;101886;-75
2023/10/15 11:17:05;;;;;;;;;0.00;0.00;;;;;-143.90;46.51;74886.94;4972973;28;103760;-79
2023/10/15 11:19:32;;;;;;;;;2.00;2.00;;;;;-143.90;48.76;74905.53;4967104;28;102136;-76
2023/10/15 11:21:59;;;;;;;;;1.00;1.00;;;;;-143.90;47.77;74907.59;4972771;28;103119;-78
2023/10/15 11:24:29;;;;;;;;;2.25;1.00;;;;;-143.90;48.89;74946.88;4954993;28;103514;-77
2023/10/15 11:26:55;;;;;;;;;2.00;2.00;;;;;-143.90;50.25;75010.97;4966776;28;103500;-76
2023/10/15 11:29:24;;;;;;;;;2.50;2.00;;;;;-143.90;48.44;75039.91;4950037;28;103204;-75
2023/10/15 11:31:56;;;;;;;;;3.00;3.00;;;;;-143.90;50.26;75060.59;4964832;28;101586;-76
2023/10/15 11:34:26;;;;;;;;;3.50;2.25;;;;;-143.90;50.72;75031.63;4969886;28;101868;-77
2023/10/15 11:36:57;;;;;;;;;2.25;1.00;;;;;-143.90;50.47;75006.84;4953867;28;103367;-76